sensor_id;sensor_type;location;lat;lon;timestamp;pressure;altitude;pressure_sealevel;temperature;humidity
61676;BME280;47574;52.090;5.244;2022-10-18T00:01:28;102538.00000000001;;;20.06;62.67
61676;BME280;47574;52.090;5.244;2022-10-18T00:04:40;102539.00000000001;;;20.07;62.21
61676;BME280;47574;52.090;5.244;2022-10-18T00:06:16;102542.0;;;20.12;61.85
61676;BME280;47574;52.090;5.244;2022-10-18T00:07:52;102541.00000000001;;;20.18;61.92
61676;BME280;47574;52.090;5.244;2022-10-18T00:11:06;102539.00000000001;;;20.32;61.57
61676;BME280;47574;52.090;5.244;2022-10-18T00:12:42;102541.00000000001;;;20.36;61.5
61676;BME280;47574;52.090;5.244;2022-10-18T00:14:18;102539.00000000001;;;20.43;61.7
61676;BME280;47574;52.090;5.244;2022-10-18T00:15:57;102531.0;;;20.48;61.31
61676;BME280;47574;52.090;5.244;2022-10-18T00:19:10;102534.99999999999;;;20.38;61.15
61676;BME280;47574;52.090;5.244;2022-10-18T00:20:55;102539.00000000001;;;20.38;61.32
61676;BME280;47574;52.090;5.244;2022-10-18T00:22:33;102542.0;;;20.49;60.94
61676;BME280;47574;52.090;5.244;2022-10-18T00:25:45;102541.00000000001;;;20.45;60.87
61676;BME280;47574;52.090;5.244;2022-10-18T00:27:21;102542.0;;;20.16;61.84
61676;BME280;47574;52.090;5.244;2022-10-18T00:28:59;102543.0;;;19.98;62.14
61676;BME280;47574;52.090;5.244;2022-10-18T00:30:40;102541.00000000001;;;20.16;61.83
61676;BME280;47574;52.090;5.244;2022-10-18T00:33:55;102540.00000000001;;;20.18;61.83
61676;BME280;47574;52.090;5.244;2022-10-18T00:35:33;102541.00000000001;;;20.3;61.61
61676;BME280;47574;52.090;5.244;2022-10-18T00:37:10;102540.00000000001;;;20.37;61.53
61676;BME280;47574;52.090;5.244;2022-10-18T00:40:23;102540.00000000001;;;20.37;61.56
61676;BME280;47574;52.090;5.244;2022-10-18T00:41:59;102542.0;;;20.37;61.39
61676;BME280;47574;52.090;5.244;2022-10-18T00:43:50;102541.00000000001;;;20.06;62.17
61676;BME280;47574;52.090;5.244;2022-10-18T00:46:36;102541.00000000001;;;20.0;62.53
61676;BME280;47574;52.090;5.244;2022-10-18T00:48:14;102544.0;;;19.98;62.77
61676;BME280;47574;52.090;5.244;2022-10-18T00:49:55;102553.0;;;19.87;63.45
61676;BME280;47574;52.090;5.244;2022-10-18T00:51:40;102554.0;;;19.91;63.04
61676;BME280;47574;52.090;5.244;2022-10-18T00:54:58;102555.0;;;19.88;63.11
61676;BME280;47574;52.090;5.244;2022-10-18T00:56:35;102558.0;;;19.82;63.2
61676;BME280;47574;52.090;5.244;2022-10-18T00:58:13;102557.0;;;19.98;62.8
61676;BME280;47574;52.090;5.244;2022-10-18T00:59:51;102564.00000000001;;;19.98;62.46
61676;BME280;47574;52.090;5.244;2022-10-18T01:03:04;102564.00000000001;;;19.91;62.57
61676;BME280;47574;52.090;5.244;2022-10-18T01:04:41;102558.99999999999;;;19.77;63.04
61676;BME280;47574;52.090;5.244;2022-10-18T01:06:17;102555.0;;;19.75;63.35
61676;BME280;47574;52.090;5.244;2022-10-18T01:09:58;102556.0;;;19.75;63.17
61676;BME280;47574;52.090;5.244;2022-10-18T01:11:58;102570.0;;;19.84;63.27
61676;BME280;47574;52.090;5.244;2022-10-18T01:14:06;102576.0;;;19.98;62.63
61676;BME280;47574;52.090;5.244;2022-10-18T01:15:53;102572.0;;;20.06;62.51
61676;BME280;47574;52.090;5.244;2022-10-18T01:17:51;102568.0;;;20.03;62.54
61676;BME280;47574;52.090;5.244;2022-10-18T01:20:10;102565.00000000001;;;20.04;63.04
61676;BME280;47574;52.090;5.244;2022-10-18T01:22:32;102566.00000000001;;;20.2;62.58
61676;BME280;47574;52.090;5.244;2022-10-18T01:24:41;102567.0;;;20.13;62.56
61676;BME280;47574;52.090;5.244;2022-10-18T01:26:47;102567.0;;;20.2;62.53
61676;BME280;47574;52.090;5.244;2022-10-18T01:28:48;102572.0;;;19.97;62.72
61676;BME280;47574;52.090;5.244;2022-10-18T01:30:41;102574.0;;;20.09;62.87
61676;BME280;47574;52.090;5.244;2022-10-18T01:34:14;102583.99999999999;;;20.11;63.06
61676;BME280;47574;52.090;5.244;2022-10-18T01:35:56;102583.0;;;19.93;63.14
61676;BME280;47574;52.090;5.244;2022-10-18T01:37:36;102583.99999999999;;;20.02;63.39
61676;BME280;47574;52.090;5.244;2022-10-18T01:40:57;102583.0;;;20.05;63.05
61676;BME280;47574;52.090;5.244;2022-10-18T01:42:35;102586.99999999999;;;19.91;63.23
61676;BME280;47574;52.090;5.244;2022-10-18T01:44:15;102582.0;;;19.86;63.18
61676;BME280;47574;52.090;5.244;2022-10-18T01:45:55;102581.0;;;19.77;63.75
61676;BME280;47574;52.090;5.244;2022-10-18T01:49:12;102574.0;;;19.59;63.96
61676;BME280;47574;52.090;5.244;2022-10-18T01:50:48;102572.0;;;19.57;63.75
61676;BME280;47574;52.090;5.244;2022-10-18T01:52:24;102567.0;;;19.53;63.91
61676;BME280;47574;52.090;5.244;2022-10-18T01:55:41;102568.0;;;19.5;63.75
61676;BME280;47574;52.090;5.244;2022-10-18T01:57:23;102569.0;;;19.41;64.25
61676;BME280;47574;52.090;5.244;2022-10-18T01:59:24;102567.0;;;19.5;64.05
61676;BME280;47574;52.090;5.244;2022-10-18T02:01:08;102575.0;;;19.75;63.12
61676;BME280;47574;52.090;5.244;2022-10-18T02:02:48;102574.0;;;19.68;63.48
61676;BME280;47574;52.090;5.244;2022-10-18T02:06:19;102579.0;;;19.7;63.58
61676;BME280;47574;52.090;5.244;2022-10-18T02:08:03;102574.0;;;19.8;63.34
61676;BME280;47574;52.090;5.244;2022-10-18T02:09:48;102577.0;;;19.87;63.2
61676;BME280;47574;52.090;5.244;2022-10-18T02:11:30;102575.0;;;19.59;63.87
61676;BME280;47574;52.090;5.244;2022-10-18T02:13:09;102573.0;;;19.64;63.67
61676;BME280;47574;52.090;5.244;2022-10-18T02:16:29;102569.0;;;19.56;63.72
61676;BME280;47574;52.090;5.244;2022-10-18T02:18:11;102569.0;;;19.59;63.32
61676;BME280;47574;52.090;5.244;2022-10-18T02:19:53;102574.0;;;19.75;63.04
61676;BME280;47574;52.090;5.244;2022-10-18T02:21:32;102581.0;;;19.88;62.62
61676;BME280;47574;52.090;5.244;2022-10-18T02:24:48;102579.0;;;19.89;62.3
61676;BME280;47574;52.090;5.244;2022-10-18T02:26:28;102581.0;;;19.75;62.83
61676;BME280;47574;52.090;5.244;2022-10-18T02:28:05;102582.0;;;19.59;63.1
61676;BME280;47574;52.090;5.244;2022-10-18T02:31:24;102584.99999999999;;;19.48;63.38
61676;BME280;47574;52.090;5.244;2022-10-18T02:33:04;102580.0;;;19.56;63.16
61676;BME280;47574;52.090;5.244;2022-10-18T02:34:51;102580.0;;;19.72;62.61
61676;BME280;47574;52.090;5.244;2022-10-18T02:36:34;102580.0;;;19.78;62.46
61676;BME280;47574;52.090;5.244;2022-10-18T02:38:18;102581.0;;;19.77;62.33
61676;BME280;47574;52.090;5.244;2022-10-18T02:41:32;102586.99999999999;;;19.62;62.71
61676;BME280;47574;52.090;5.244;2022-10-18T02:43:09;102582.0;;;19.29;63.4
61676;BME280;47574;52.090;5.244;2022-10-18T02:44:45;102575.0;;;19.16;63.72
61676;BME280;47574;52.090;5.244;2022-10-18T02:47:57;102576.0;;;19.2;63.72
61676;BME280;47574;52.090;5.244;2022-10-18T02:49:33;102574.0;;;19.07;63.72
61676;BME280;47574;52.090;5.244;2022-10-18T02:51:09;102575.0;;;19.0;64.06
61676;BME280;47574;52.090;5.244;2022-10-18T02:52:45;102575.0;;;19.06;64.3
61676;BME280;47574;52.090;5.244;2022-10-18T02:55:58;102581.0;;;19.18;63.52
61676;BME280;47574;52.090;5.244;2022-10-18T02:57:36;102586.99999999999;;;19.41;62.66
61676;BME280;47574;52.090;5.244;2022-10-18T02:59:12;102582.0;;;19.34;62.48
61676;BME280;47574;52.090;5.244;2022-10-18T03:02:24;102577.0;;;19.31;62.52
61676;BME280;47574;52.090;5.244;2022-10-18T03:04:01;102582.0;;;19.36;62.34
61676;BME280;47574;52.090;5.244;2022-10-18T03:05:38;102578.0;;;19.31;62.02
61676;BME280;47574;52.090;5.244;2022-10-18T03:08:51;102579.0;;;19.27;62.36
61676;BME280;47574;52.090;5.244;2022-10-18T03:10:27;102580.0;;;19.23;62.23
61676;BME280;47574;52.090;5.244;2022-10-18T03:12:04;102583.0;;;19.34;62.33
61676;BME280;47574;52.090;5.244;2022-10-18T03:13:41;102579.0;;;19.34;62.13
61676;BME280;47574;52.090;5.244;2022-10-18T03:16:53;102584.99999999999;;;19.41;62.0
61676;BME280;47574;52.090;5.244;2022-10-18T03:18:29;102583.99999999999;;;19.53;61.89
61676;BME280;47574;52.090;5.244;2022-10-18T03:20:07;102581.0;;;19.32;61.65
61676;BME280;47574;52.090;5.244;2022-10-18T03:23:19;102583.99999999999;;;19.27;62.29
61676;BME280;47574;52.090;5.244;2022-10-18T03:24:57;102588.00000000001;;;19.32;61.87
61676;BME280;47574;52.090;5.244;2022-10-18T03:26:33;102592.0;;;19.39;61.85
61676;BME280;47574;52.090;5.244;2022-10-18T03:29:45;102584.99999999999;;;19.25;61.82
61676;BME280;47574;52.090;5.244;2022-10-18T03:31:21;102588.00000000001;;;19.22;61.93
61676;BME280;47574;52.090;5.244;2022-10-18T03:32:57;102588.00000000001;;;19.36;61.62
61676;BME280;47574;52.090;5.244;2022-10-18T03:34:33;102586.99999999999;;;19.2;62.22
61676;BME280;47574;52.090;5.244;2022-10-18T03:37:47;102589.00000000001;;;19.29;62.31
61676;BME280;47574;52.090;5.244;2022-10-18T03:39:24;102586.99999999999;;;19.18;61.86
61676;BME280;47574;52.090;5.244;2022-10-18T03:41:00;102589.00000000001;;;19.11;62.09
61676;BME280;47574;52.090;5.244;2022-10-18T03:44:12;102592.0;;;19.18;61.95
61676;BME280;47574;52.090;5.244;2022-10-18T03:45:48;102584.99999999999;;;19.09;62.05
61676;BME280;47574;52.090;5.244;2022-10-18T03:47:24;102584.99999999999;;;19.18;62.03
61676;BME280;47574;52.090;5.244;2022-10-18T03:50:37;102591.00000000001;;;19.27;61.72
61676;BME280;47574;52.090;5.244;2022-10-18T03:52:13;102590.00000000001;;;19.5;61.03
61676;BME280;47574;52.090;5.244;2022-10-18T03:53:49;102589.00000000001;;;19.23;61.42
61676;BME280;47574;52.090;5.244;2022-10-18T03:57:01;102590.00000000001;;;19.25;61.03
61676;BME280;47574;52.090;5.244;2022-10-18T03:58:37;102582.0;;;18.97;61.71
61676;BME280;47574;52.090;5.244;2022-10-18T04:00:14;102582.0;;;18.91;61.92
61676;BME280;47574;52.090;5.244;2022-10-18T04:01:50;102583.99999999999;;;19.09;61.42
61676;BME280;47574;52.090;5.244;2022-10-18T04:05:03;102582.0;;;18.91;61.6
61676;BME280;47574;52.090;5.244;2022-10-18T04:06:40;102582.0;;;19.06;61.09
61676;BME280;47574;52.090;5.244;2022-10-18T04:08:16;102578.0;;;18.7;61.97
61676;BME280;47574;52.090;5.244;2022-10-18T04:11:29;102574.0;;;18.73;61.79
61676;BME280;47574;52.090;5.244;2022-10-18T04:13:06;102579.0;;;18.48;62.2
61676;BME280;47574;52.090;5.244;2022-10-18T04:14:42;102579.0;;;18.47;62.02
61676;BME280;47574;52.090;5.244;2022-10-18T04:17:56;102581.0;;;18.47;61.77
61676;BME280;47574;52.090;5.244;2022-10-18T04:19:32;102580.0;;;18.37;61.98
61676;BME280;47574;52.090;5.244;2022-10-18T04:21:08;102582.0;;;18.29;62.22
61676;BME280;47574;52.090;5.244;2022-10-18T04:22:47;102583.99999999999;;;18.14;62.54
61676;BME280;47574;52.090;5.244;2022-10-18T04:25:59;102582.0;;;18.31;62.23
61676;BME280;47574;52.090;5.244;2022-10-18T04:27:35;102589.00000000001;;;18.45;61.4
61676;BME280;47574;52.090;5.244;2022-10-18T04:29:11;102590.00000000001;;;18.27;61.87
61676;BME280;47574;52.090;5.244;2022-10-18T04:32:28;102589.00000000001;;;18.09;62.18
61676;BME280;47574;52.090;5.244;2022-10-18T04:34:04;102589.00000000001;;;18.06;62.13
61676;BME280;47574;52.090;5.244;2022-10-18T04:35:40;102592.0;;;18.18;61.95
61676;BME280;47574;52.090;5.244;2022-10-18T04:38:52;102582.0;;;18.2;62.05
61676;BME280;47574;52.090;5.244;2022-10-18T04:40:28;102574.0;;;18.5;61.83
61676;BME280;47574;52.090;5.244;2022-10-18T04:42:05;102577.0;;;18.66;61.47
61676;BME280;47574;52.090;5.244;2022-10-18T04:43:41;102579.0;;;18.64;61.11
61676;BME280;47574;52.090;5.244;2022-10-18T04:46:53;102582.0;;;18.5;61.64
61676;BME280;47574;52.090;5.244;2022-10-18T04:48:29;102577.0;;;18.72;60.97
61676;BME280;47574;52.090;5.244;2022-10-18T04:50:06;102589.00000000001;;;18.73;60.83
61676;BME280;47574;52.090;5.244;2022-10-18T04:53:18;102588.00000000001;;;18.39;61.29
61676;BME280;47574;52.090;5.244;2022-10-18T04:54:54;102592.0;;;18.25;61.82
61676;BME280;47574;52.090;5.244;2022-10-18T04:56:31;102591.00000000001;;;18.46;61.13
61676;BME280;47574;52.090;5.244;2022-10-18T04:59:43;102594.0;;;18.54;60.88
61676;BME280;47574;52.090;5.244;2022-10-18T05:01:19;102594.0;;;18.72;60.74
61676;BME280;47574;52.090;5.244;2022-10-18T05:02:55;102591.00000000001;;;18.68;60.78
61676;BME280;47574;52.090;5.244;2022-10-18T05:04:32;102592.0;;;18.68;60.98
61676;BME280;47574;52.090;5.244;2022-10-18T05:07:45;102591.00000000001;;;18.77;60.74
61676;BME280;47574;52.090;5.244;2022-10-18T05:09:23;102592.0;;;18.66;60.62
61676;BME280;47574;52.090;5.244;2022-10-18T05:11:00;102594.0;;;18.5;60.72
61676;BME280;47574;52.090;5.244;2022-10-18T05:14:13;102598.0;;;18.31;61.42
61676;BME280;47574;52.090;5.244;2022-10-18T05:15:49;102602.0;;;18.34;61.6
61676;BME280;47574;52.090;5.244;2022-10-18T05:17:25;102608.99999999999;;;18.3;61.42
61676;BME280;47574;52.090;5.244;2022-10-18T05:20:39;102614.00000000001;;;18.34;61.58
61676;BME280;47574;52.090;5.244;2022-10-18T05:22:15;102614.00000000001;;;18.52;60.95
61676;BME280;47574;52.090;5.244;2022-10-18T05:23:54;102611.99999999999;;;18.27;61.28
61676;BME280;47574;52.090;5.244;2022-10-18T05:25:31;102616.00000000001;;;18.0;62.0
61676;BME280;47574;52.090;5.244;2022-10-18T05:28:43;102614.00000000001;;;17.89;62.13
61676;BME280;47574;52.090;5.244;2022-10-18T05:30:20;102614.00000000001;;;18.31;60.93
61676;BME280;47574;52.090;5.244;2022-10-18T05:31:56;102617.0;;;18.2;61.28
61676;BME280;47574;52.090;5.244;2022-10-18T05:35:10;102622.0;;;17.95;61.98
61676;BME280;47574;52.090;5.244;2022-10-18T05:36:48;102627.0;;;18.07;61.35
61676;BME280;47574;52.090;5.244;2022-10-18T05:38:24;102626.0;;;18.03;61.32
61676;BME280;47574;52.090;5.244;2022-10-18T05:41:36;102623.0;;;17.95;61.06
61676;BME280;47574;52.090;5.244;2022-10-18T05:43:12;102618.0;;;17.88;61.52
61676;BME280;47574;52.090;5.244;2022-10-18T05:44:48;102618.0;;;18.21;60.68
61676;BME280;47574;52.090;5.244;2022-10-18T05:46:24;102623.0;;;18.02;60.82
61676;BME280;47574;52.090;5.244;2022-10-18T05:49:36;102629.0;;;17.96;61.1
61676;BME280;47574;52.090;5.244;2022-10-18T05:51:12;102626.0;;;17.77;61.91
61676;BME280;47574;52.090;5.244;2022-10-18T05:52:49;102630.0;;;17.62;62.31
61676;BME280;47574;52.090;5.244;2022-10-18T05:56:02;102632.0;;;17.68;61.7
61676;BME280;47574;52.090;5.244;2022-10-18T05:57:38;102634.99999999999;;;17.7;62.07
61676;BME280;47574;52.090;5.244;2022-10-18T05:59:14;102644.0;;;17.52;62.64
61676;BME280;47574;52.090;5.244;2022-10-18T06:02:26;102642.0;;;17.87;61.67
61676;BME280;47574;52.090;5.244;2022-10-18T06:04:02;102646.0;;;17.89;61.58
61676;BME280;47574;52.090;5.244;2022-10-18T06:05:38;102646.0;;;18.09;61.33
61676;BME280;47574;52.090;5.244;2022-10-18T06:08:51;102653.0;;;17.95;61.68
61676;BME280;47574;52.090;5.244;2022-10-18T06:10:27;102658.99999999999;;;17.87;62.1
61676;BME280;47574;52.090;5.244;2022-10-18T06:12:03;102666.00000000001;;;17.75;62.76
61676;BME280;47574;52.090;5.244;2022-10-18T06:13:41;102667.0;;;17.87;62.45
61676;BME280;47574;52.090;5.244;2022-10-18T06:16:55;102665.00000000001;;;17.78;62.95
61676;BME280;47574;52.090;5.244;2022-10-18T06:18:31;102659.99999999999;;;18.07;62.08
61676;BME280;47574;52.090;5.244;2022-10-18T06:20:08;102663.00000000001;;;18.06;62.28
61676;BME280;47574;52.090;5.244;2022-10-18T06:23:21;102668.0;;;17.89;62.97
61676;BME280;47574;52.090;5.244;2022-10-18T06:24:57;102672.0;;;17.86;62.62
61676;BME280;47574;52.090;5.244;2022-10-18T06:26:33;102675.0;;;17.72;63.28
61676;BME280;47574;52.090;5.244;2022-10-18T06:29:45;102676.0;;;17.81;63.51
61676;BME280;47574;52.090;5.244;2022-10-18T06:31:21;102674.0;;;18.05;62.42
61676;BME280;47574;52.090;5.244;2022-10-18T06:32:58;102677.0;;;18.13;62.48
61676;BME280;47574;52.090;5.244;2022-10-18T06:34:35;102683.99999999999;;;18.32;61.83
61676;BME280;47574;52.090;5.244;2022-10-18T06:37:50;102691.00000000001;;;18.2;62.14
61676;BME280;47574;52.090;5.244;2022-10-18T06:39:26;102694.0;;;18.09;62.43
61676;BME280;47574;52.090;5.244;2022-10-18T06:41:04;102697.0;;;18.02;62.12
61676;BME280;47574;52.090;5.244;2022-10-18T06:44:18;102696.0;;;17.96;62.64
61676;BME280;47574;52.090;5.244;2022-10-18T06:45:54;102697.0;;;17.97;62.33
61676;BME280;47574;52.090;5.244;2022-10-18T06:47:31;102697.0;;;18.22;62.23
61676;BME280;47574;52.090;5.244;2022-10-18T06:49:07;102701.0;;;18.13;62.09
61676;BME280;47574;52.090;5.244;2022-10-18T06:52:26;102704.0;;;18.2;61.76
61676;BME280;47574;52.090;5.244;2022-10-18T06:54:03;102713.00000000001;;;17.93;62.56
61676;BME280;47574;52.090;5.244;2022-10-18T06:55:39;102713.00000000001;;;18.07;62.34
61676;BME280;47574;52.090;5.244;2022-10-18T06:58:51;102719.0;;;18.03;62.27
61676;BME280;47574;52.090;5.244;2022-10-18T07:00:28;102721.0;;;17.95;62.55
61676;BME280;47574;52.090;5.244;2022-10-18T07:02:04;102720.0;;;17.97;62.23
61676;BME280;47574;52.090;5.244;2022-10-18T07:05:17;102717.0;;;18.27;62.05
61676;BME280;47574;52.090;5.244;2022-10-18T07:06:53;102720.0;;;18.34;61.58
61676;BME280;47574;52.090;5.244;2022-10-18T07:08:29;102724.0;;;18.07;62.08
61676;BME280;47574;52.090;5.244;2022-10-18T07:10:07;102731.0;;;18.07;61.97
61676;BME280;47574;52.090;5.244;2022-10-18T07:13:20;102733.99999999999;;;18.16;61.86
61676;BME280;47574;52.090;5.244;2022-10-18T07:14:57;102740.00000000001;;;18.02;62.14
61676;BME280;47574;52.090;5.244;2022-10-18T07:16:33;102740.00000000001;;;18.27;61.2
61676;BME280;47574;52.090;5.244;2022-10-18T07:19:45;102742.0;;;18.16;61.65
61676;BME280;47574;52.090;5.244;2022-10-18T07:21:23;102745.0;;;18.03;61.55
61676;BME280;47574;52.090;5.244;2022-10-18T07:22:59;102743.0;;;17.63;61.6
61676;BME280;47574;52.090;5.244;2022-10-18T07:26:14;102742.0;;;17.68;62.09
61676;BME280;47574;52.090;5.244;2022-10-18T07:27:51;102745.0;;;18.09;61.12
61676;BME280;47574;52.090;5.244;2022-10-18T07:29:28;102751.0;;;17.91;61.41
61676;BME280;47574;52.090;5.244;2022-10-18T07:31:05;102756.0;;;17.84;61.92
61676;BME280;47574;52.090;5.244;2022-10-18T07:34:17;102754.0;;;17.82;62.45
61676;BME280;47574;52.090;5.244;2022-10-18T07:35:53;102748.0;;;18.09;62.1
61676;BME280;47574;52.090;5.244;2022-10-18T07:37:29;102748.0;;;18.18;61.51
61676;BME280;47574;52.090;5.244;2022-10-18T07:40:44;102751.0;;;17.93;62.11
61676;BME280;47574;52.090;5.244;2022-10-18T07:42:20;102761.99999999999;;;18.0;61.98
61676;BME280;47574;52.090;5.244;2022-10-18T07:43:56;102766.00000000001;;;18.02;62.14
61676;BME280;47574;52.090;5.244;2022-10-18T07:47:09;102775.0;;;18.05;62.32
61676;BME280;47574;52.090;5.244;2022-10-18T07:48:45;102772.0;;;18.2;62.05
61676;BME280;47574;52.090;5.244;2022-10-18T07:50:22;102767.0;;;18.25;61.7
61676;BME280;47574;52.090;5.244;2022-10-18T07:51:59;102767.0;;;18.36;61.27
61676;BME280;47574;52.090;5.244;2022-10-18T07:55:13;102769.0;;;18.39;61.25
61676;BME280;47574;52.090;5.244;2022-10-18T07:56:49;102766.00000000001;;;18.3;61.67
61676;BME280;47574;52.090;5.244;2022-10-18T07:58:25;102771.0;;;18.48;61.58
61676;BME280;47574;52.090;5.244;2022-10-18T08:01:40;102776.0;;;18.47;61.5
61676;BME280;47574;52.090;5.244;2022-10-18T08:03:16;102781.0;;;18.36;61.83
61676;BME280;47574;52.090;5.244;2022-10-18T08:04:53;102783.99999999999;;;18.52;61.58
61676;BME280;47574;52.090;5.244;2022-10-18T08:08:06;102792.0;;;18.55;61.51
61676;BME280;47574;52.090;5.244;2022-10-18T08:09:42;102790.00000000001;;;18.59;61.56
61676;BME280;47574;52.090;5.244;2022-10-18T08:11:20;102789.00000000001;;;18.54;61.7
61676;BME280;47574;52.090;5.244;2022-10-18T08:12:57;102786.99999999999;;;18.71;61.5
61676;BME280;47574;52.090;5.244;2022-10-18T08:16:11;102792.0;;;18.7;61.43
61676;BME280;47574;52.090;5.244;2022-10-18T08:17:47;102792.0;;;18.86;61.13
61676;BME280;47574;52.090;5.244;2022-10-18T08:19:23;102790.00000000001;;;18.91;61.0
61676;BME280;47574;52.090;5.244;2022-10-18T08:22:37;102783.99999999999;;;18.91;61.26
61676;BME280;47574;52.090;5.244;2022-10-18T08:24:13;102791.00000000001;;;19.05;61.37
61676;BME280;47574;52.090;5.244;2022-10-18T08:25:49;102795.0;;;19.25;60.98
61676;BME280;47574;52.090;5.244;2022-10-18T08:29:01;102793.0;;;19.2;61.12
61676;BME280;47574;52.090;5.244;2022-10-18T08:30:38;102792.0;;;19.2;61.33
61676;BME280;47574;52.090;5.244;2022-10-18T08:32:14;102789.00000000001;;;19.37;61.0
61676;BME280;47574;52.090;5.244;2022-10-18T08:33:51;102792.0;;;19.41;60.95
61676;BME280;47574;52.090;5.244;2022-10-18T08:37:07;102797.0;;;19.41;61.0
61676;BME280;47574;52.090;5.244;2022-10-18T08:38:43;102795.0;;;19.36;61.08
61676;BME280;47574;52.090;5.244;2022-10-18T08:40:19;102797.0;;;19.34;61.31
61676;BME280;47574;52.090;5.244;2022-10-18T08:44:05;102799.0;;;19.31;61.15
61676;BME280;47574;52.090;5.244;2022-10-18T08:45:48;102796.0;;;19.48;60.99
61676;BME280;47574;52.090;5.244;2022-10-18T08:47:32;102793.0;;;19.52;61.03
61676;BME280;47574;52.090;5.244;2022-10-18T08:49:21;102789.00000000001;;;19.68;61.09
61676;BME280;47574;52.090;5.244;2022-10-18T08:51:03;102792.0;;;19.64;61.12
61676;BME280;47574;52.090;5.244;2022-10-18T08:52:44;102799.0;;;19.7;60.83
61676;BME280;47574;52.090;5.244;2022-10-18T08:56:14;102803.0;;;19.77;60.62
61676;BME280;47574;52.090;5.244;2022-10-18T08:57:51;102795.0;;;19.79;60.5
61676;BME280;47574;52.090;5.244;2022-10-18T08:59:31;102792.0;;;19.93;60.55
61676;BME280;47574;52.090;5.244;2022-10-18T09:01:18;102799.0;;;19.97;60.26
61676;BME280;47574;52.090;5.244;2022-10-18T09:04:59;102802.0;;;19.84;60.64
61676;BME280;47574;52.090;5.244;2022-10-18T09:06:43;102793.0;;;20.0;60.06
61676;BME280;47574;52.090;5.244;2022-10-18T09:08:46;102789.00000000001;;;20.03;60.07
61676;BME280;47574;52.090;5.244;2022-10-18T09:10:41;102792.0;;;20.07;60.05
61676;BME280;47574;52.090;5.244;2022-10-18T09:12:29;102795.0;;;20.11;59.91
61676;BME280;47574;52.090;5.244;2022-10-18T09:14:27;102795.0;;;20.27;59.51
61676;BME280;47574;52.090;5.244;2022-10-18T09:16:32;102796.0;;;20.16;60.11
61676;BME280;47574;52.090;5.244;2022-10-18T09:18:38;102799.0;;;20.31;59.8
61676;BME280;47574;52.090;5.244;2022-10-18T09:20:24;102806.0;;;20.41;59.32
61676;BME280;47574;52.090;5.244;2022-10-18T09:22:08;102811.99999999999;;;20.48;59.33
61676;BME280;47574;52.090;5.244;2022-10-18T09:25:35;102814.00000000001;;;20.52;59.37
61676;BME280;47574;52.090;5.244;2022-10-18T09:27:19;102813.00000000001;;;20.56;59.15
61676;BME280;47574;52.090;5.244;2022-10-18T09:29:08;102808.99999999999;;;20.52;59.08
61676;BME280;47574;52.090;5.244;2022-10-18T09:30:57;102809.99999999999;;;20.71;58.51
61676;BME280;47574;52.090;5.244;2022-10-18T09:32:45;102813.00000000001;;;20.58;59.31
61676;BME280;47574;52.090;5.244;2022-10-18T09:34:31;102820.0;;;20.79;58.38
61676;BME280;47574;52.090;5.244;2022-10-18T09:38:01;102825.0;;;20.89;57.5
61676;BME280;47574;52.090;5.244;2022-10-18T09:39:39;102824.0;;;20.97;56.51
61676;BME280;47574;52.090;5.244;2022-10-18T09:41:21;102822.0;;;20.92;57.14
61676;BME280;47574;52.090;5.244;2022-10-18T09:43:01;102821.0;;;20.83;56.7
61676;BME280;47574;52.090;5.244;2022-10-18T09:46:26;102826.0;;;21.04;56.14
61676;BME280;47574;52.090;5.244;2022-10-18T09:48:10;102825.0;;;21.06;55.47
61676;BME280;47574;52.090;5.244;2022-10-18T09:49:53;102824.0;;;21.17;54.79
61676;BME280;47574;52.090;5.244;2022-10-18T09:51:34;102825.0;;;21.01;56.18
61676;BME280;47574;52.090;5.244;2022-10-18T09:55:04;102825.0;;;21.34;55.25
61676;BME280;47574;52.090;5.244;2022-10-18T09:56:47;102829.0;;;21.45;54.93
61676;BME280;47574;52.090;5.244;2022-10-18T09:58:26;102830.0;;;21.37;54.22
61676;BME280;47574;52.090;5.244;2022-10-18T10:00:14;102827.0;;;21.33;54.65
61676;BME280;47574;52.090;5.244;2022-10-18T10:01:53;102826.0;;;21.39;52.63
61676;BME280;47574;52.090;5.244;2022-10-18T10:05:11;102833.0;;;21.49;53.0
61676;BME280;47574;52.090;5.244;2022-10-18T10:06:49;102836.99999999999;;;21.55;53.18
61676;BME280;47574;52.090;5.244;2022-10-18T10:08:31;102840.00000000001;;;21.69;53.02
61676;BME280;47574;52.090;5.244;2022-10-18T10:10:13;102842.0;;;21.72;52.74
61676;BME280;47574;52.090;5.244;2022-10-18T10:13:28;102843.0;;;21.76;51.83
61676;BME280;47574;52.090;5.244;2022-10-18T10:15:07;102843.0;;;21.72;51.51
61676;BME280;47574;52.090;5.244;2022-10-18T10:16:50;102842.0;;;21.66;51.71
61676;BME280;47574;52.090;5.244;2022-10-18T10:18:29;102841.00000000001;;;21.9;49.7
61676;BME280;47574;52.090;5.244;2022-10-18T10:21:56;102842.0;;;21.82;48.64
61676;BME280;47574;52.090;5.244;2022-10-18T10:23:36;102846.0;;;22.13;48.26
61676;BME280;47574;52.090;5.244;2022-10-18T10:25:25;102850.0;;;22.12;48.15
61676;BME280;47574;52.090;5.244;2022-10-18T10:27:14;102849.0;;;21.91;50.09
61676;BME280;47574;52.090;5.244;2022-10-18T10:28:52;102845.0;;;22.07;49.04
61676;BME280;47574;52.090;5.244;2022-10-18T10:32:11;102847.0;;;22.03;46.94
61676;BME280;47574;52.090;5.244;2022-10-18T10:33:57;102843.0;;;21.98;45.67
61676;BME280;47574;52.090;5.244;2022-10-18T10:35:37;102849.0;;;22.29;45.68
61676;BME280;47574;52.090;5.244;2022-10-18T10:37:24;102852.0;;;22.06;47.05
61676;BME280;47574;52.090;5.244;2022-10-18T10:40:47;102850.0;;;22.18;47.21
61676;BME280;47574;52.090;5.244;2022-10-18T10:42:24;102847.0;;;22.26;45.85